Time;durP1;ratioP1;P1;durP2;ratioP2;P2;SDS_P1;SDS_P2;PMS_P1;PMS_P2;Temp;Humidity;BMP_temperature;BMP_pressure;BME280_temperature;BME280_humidity;BME280_pressure;Samples;Min_cycle;Max_cycle;Signal;HPM_P1;HPM_P2
2021/12/02 00:01:58;;;;;;;1.05;0.95;;;-5.80;99.90;;;;;;4979590;28;20054;-86
2021/12/02 00:04:28;;;;;;;1.02;0.82;;;-5.80;99.90;;;;;;4966268;28;20083;-84
2021/12/02 00:06:56;;;;;;;1.30;1.20;;;-5.50;99.90;;;;;;4962176;28;20055;-84
2021/12/02 00:09:23;;;;;;;3.15;1.33;;;-5.50;99.90;;;;;;4992351;28;20038;-84
2021/12/02 00:11:51;;;;;;;1.58;1.17;;;-5.40;99.90;;;;;;4957774;28;20069;-86
2021/12/02 00:14:24;;;;;;;1.00;0.90;;;-5.50;99.90;;;;;;4973196;28;20485;-87
2021/12/02 00:17:05;;;;;;;2.65;0.98;;;-5.20;99.90;;;;;;4979662;28;20134;-87
2021/12/02 00:22:25;;;;;;;2.85;1.38;;;-4.70;99.90;;;;;;4964639;28;20481;-87
2021/12/02 00:25:01;;;;;;;2.40;1.42;;;-5.60;99.90;;;;;;4974739;28;20457;-87
2021/12/02 00:27:31;;;;;;;1.63;1.50;;;-4.80;99.90;;;;;;4979492;28;20047;-86
2021/12/02 00:30:04;;;;;;;2.03;1.48;;;-5.40;99.90;;;;;;4965226;28;20046;-87
2021/12/02 00:32:32;;;;;;;1.75;1.30;;;-5.20;99.90;;;;;;4958887;28;20532;-87
2021/12/02 00:35:04;;;;;;;1.92;1.00;;;-2.50;99.90;;;;;;4975908;28;20102;-87
2021/12/02 00:37:38;;;;;;;1.38;1.15;;;-3.30;99.90;;;;;;4991452;28;20049;-87
2021/12/02 00:40:07;;;;;;;2.00;1.25;;;-5.40;99.90;;;;;;4974191;28;20054;-86
2021/12/02 00:42:37;;;;;;;1.90;1.17;;;-4.60;99.90;;;;;;4966933;28;20065;-85
2021/12/02 00:45:05;;;;;;;3.35;1.55;;;-5.20;99.90;;;;;;4966041;28;20055;-84
2021/12/02 00:47:34;;;;;;;2.63;1.35;;;-5.20;99.90;;;;;;4952247;28;20050;-86
2021/12/02 00:50:05;;;;;;;3.60;1.80;;;-5.40;99.90;;;;;;4991375;28;20092;-85
2021/12/02 00:52:34;;;;;;;3.80;1.97;;;-5.50;99.90;;;;;;5006454;28;20400;-86
2021/12/02 00:55:03;;;;;;;1.77;1.38;;;-4.60;99.90;;;;;;4973405;28;20518;-86
2021/12/02 00:57:31;;;;;;;2.25;0.80;;;-4.80;99.90;;;;;;4996305;28;20057;-86
2021/12/02 01:00:03;;;;;;;0.90;0.90;;;-5.10;99.90;;;;;;4989062;28;20064;-86
2021/12/02 01:02:35;;;;;;;1.00;0.90;;;-4.60;99.90;;;;;;4974203;28;20047;-86
2021/12/02 01:05:05;;;;;;;1.38;1.13;;;-5.10;99.90;;;;;;4982715;28;20604;-87
2021/12/02 01:07:34;;;;;;;2.33;1.17;;;-5.20;99.90;;;;;;4978082;28;20071;-86
2021/12/02 01:10:02;;;;;;;3.20;1.33;;;-4.80;99.90;;;;;;4974754;28;20112;-85
2021/12/02 01:12:31;;;;;;;2.25;1.25;;;-4.60;99.90;;;;;;4991263;28;20082;-86
2021/12/02 01:14:59;;;;;;;1.42;1.25;;;-6.40;99.90;;;;;;5005299;28;20047;-87
2021/12/02 01:17:29;;;;;;;2.25;1.20;;;-4.50;99.90;;;;;;4991759;28;20544;-86
2021/12/02 01:19:56;;;;;;;3.00;1.00;;;-4.20;99.90;;;;;;4989918;28;20060;-86
2021/12/02 01:22:27;;;;;;;1.00;0.90;;;-5.70;99.90;;;;;;5004708;28;20511;-86
2021/12/02 01:24:57;;;;;;;1.23;0.95;;;-4.50;99.90;;;;;;4989785;28;20473;-86
2021/12/02 01:27:24;;;;;;;2.05;1.30;;;-5.10;99.90;;;;;;4965859;28;20078;-87
2021/12/02 01:29:57;;;;;;;6.05;1.75;;;-5.20;99.90;;;;;;4971568;28;20053;-88
2021/12/02 01:32:26;;;;;;;2.03;1.30;;;-5.10;99.90;;;;;;4971854;28;20142;-85
2021/12/02 01:34:56;;;;;;;2.25;1.27;;;-4.80;99.90;;;;;;4986284;28;20102;-87
2021/12/02 01:37:28;;;;;;;1.63;1.52;;;-4.30;99.90;;;;;;4965998;28;20043;-87
2021/12/02 01:40:02;;;;;;;1.20;1.10;;;-5.20;99.90;;;;;;4982786;28;20061;-87
2021/12/02 01:42:34;;;;;;;1.80;1.05;;;-5.40;99.90;;;;;;4977265;28;20092;-87
2021/12/02 01:45:06;;;;;;;4.57;1.25;;;-4.20;99.90;;;;;;4986350;28;20074;-86
2021/12/02 01:47:38;;;;;;;2.13;1.50;;;-5.70;99.90;;;;;;4977099;28;20065;-88
2021/12/02 01:50:12;;;;;;;1.30;1.20;;;-4.20;99.90;;;;;;4991479;28;20052;-88
2021/12/02 01:52:45;;;;;;;1.63;1.52;;;-3.80;99.90;;;;;;4973362;28;20499;-87
2021/12/02 01:55:17;;;;;;;2.25;1.33;;;-5.40;99.90;;;;;;4974775;28;20042;-87
2021/12/02 01:58:02;;;;;;;2.08;1.30;;;-3.20;99.90;;;;;;4972239;28;20134;-88
2021/12/02 02:00:44;;;;;;;2.20;1.30;;;-5.30;99.90;;;;;;4988804;28;20108;-88
2021/12/02 02:03:15;;;;;;;1.75;1.25;;;-3.60;99.90;;;;;;4990022;28;20050;-87
2021/12/02 02:05:43;;;;;;;1.55;1.40;;;-4.30;99.90;;;;;;4994202;28;20050;-87
2021/12/02 02:08:21;;;;;;;3.88;1.40;;;-5.40;99.90;;;;;;4987180;28;20043;-88
2021/12/02 02:10:49;;;;;;;2.47;1.50;;;-5.30;99.90;;;;;;4981317;28;20055;-89
2021/12/02 02:13:19;;;;;;;2.28;1.30;;;-5.30;99.90;;;;;;4990276;28;20141;-89
2021/12/02 02:15:48;;;;;;;1.30;1.20;;;-4.80;99.90;;;;;;4976352;28;20344;-87
2021/12/02 02:18:20;;;;;;;1.50;1.40;;;-5.80;99.90;;;;;;4991806;28;20078;-86
2021/12/02 02:20:55;;;;;;;3.50;1.42;;;-5.40;99.90;;;;;;4993188;28;20065;-86
2021/12/02 02:23:25;;;;;;;2.33;1.83;;;-5.70;99.90;;;;;;4976334;28;20062;-86
2021/12/02 02:25:52;;;;;;;2.28;1.25;;;-5.70;99.90;;;;;;4979385;28;20141;-87
2021/12/02 02:28:20;;;;;;;2.00;1.70;;;-5.10;99.90;;;;;;4983768;28;20085;-86
2021/12/02 02:30:48;;;;;;;2.45;1.60;;;-5.70;99.90;;;;;;5005769;28;20042;-87
2021/12/02 02:33:18;;;;;;;3.00;1.73;;;-5.40;99.90;;;;;;4993259;28;20515;-85
2021/12/02 02:35:48;;;;;;;5.32;1.60;;;-5.70;99.90;;;;;;4979629;28;20066;-84
2021/12/02 02:38:17;;;;;;;2.80;1.88;;;-5.70;99.90;;;;;;5005554;28;20053;-84
2021/12/02 02:40:47;;;;;;;2.97;1.80;;;-5.50;99.90;;;;;;4978034;28;20050;-85
2021/12/02 02:43:21;;;;;;;5.63;2.03;;;-5.30;99.90;;;;;;4991023;28;20051;-85
2021/12/02 02:45:49;;;;;;;2.15;1.60;;;-5.00;99.90;;;;;;4975146;28;20069;-84
2021/12/02 02:48:17;;;;;;;3.40;1.92;;;-4.80;99.90;;;;;;4974724;28;20434;-87
2021/12/02 02:50:45;;;;;;;5.03;2.05;;;-5.10;99.90;;;;;;5003070;28;20101;-85
2021/12/02 02:53:19;;;;;;;3.35;1.80;;;-5.20;99.90;;;;;;4979619;28;20102;-87
2021/12/02 02:55:57;;;;;;;4.40;1.88;;;-5.30;99.90;;;;;;4996671;28;20057;-87
2021/12/02 02:58:31;;;;;;;2.00;1.80;;;-5.20;99.90;;;;;;4954552;28;20110;-87
2021/12/02 03:01:05;;;;;;;1.80;1.67;;;-5.10;99.90;;;;;;4977293;28;20344;-88
2021/12/02 03:03:40;;;;;;;1.95;1.75;;;-5.70;99.90;;;;;;4966049;28;20137;-85
2021/12/02 03:06:24;;;;;;;3.10;2.25;;;-3.50;99.90;;;;;;4956236;28;20055;-84
2021/12/02 03:08:56;;;;;;;2.85;1.80;;;-5.30;99.90;;;;;;4970616;28;20051;-84
2021/12/02 03:11:24;;;;;;;2.50;2.15;;;-5.50;99.90;;;;;;4991054;28;20057;-85
2021/12/02 03:13:52;;;;;;;2.22;2.03;;;-5.80;99.90;;;;;;4979611;28;20047;-84
2021/12/02 03:19:06;;;;;;;2.05;1.80;;;-5.30;99.90;;;;;;4972417;28;20129;-86
2021/12/02 03:21:34;;;;;;;4.90;1.98;;;-5.60;99.90;;;;;;4982226;28;20101;-84
2021/12/02 03:24:05;;;;;;;1.85;1.75;;;-5.00;99.90;;;;;;4992859;28;20050;-84
2021/12/02 03:26:32;;;;;;;2.42;2.10;;;-5.50;99.90;;;;;;4990728;28;20062;-86
2021/12/02 03:29:01;;;;;;;3.25;2.15;;;-5.70;99.90;;;;;;4960091;28;20529;-84
2021/12/02 03:31:28;;;;;;;2.75;1.95;;;-5.70;99.90;;;;;;4979892;28;20050;-85
2021/12/02 03:33:56;;;;;;;11.30;2.35;;;-5.50;99.90;;;;;;4988065;28;20536;-86
2021/12/02 03:36:24;;;;;;;4.78;2.83;;;-5.50;99.90;;;;;;5004095;28;20042;-83
2021/12/02 03:38:52;;;;;;;5.70;3.20;;;-5.70;99.90;;;;;;4976919;28;20043;-84
2021/12/02 03:41:21;;;;;;;4.38;2.42;;;-5.60;99.90;;;;;;4966903;28;20541;-84
2021/12/02 03:43:50;;;;;;;3.72;2.38;;;-5.50;99.90;;;;;;4977625;28;20051;-83
2021/12/02 03:46:24;;;;;;;4.18;3.05;;;-5.60;99.90;;;;;;4972970;28;20054;-89
2021/12/02 03:48:54;;;;;;;4.13;2.63;;;-5.50;99.90;;;;;;4974779;28;20478;-88
2021/12/02 03:51:22;;;;;;;7.10;3.00;;;-5.40;99.90;;;;;;4985458;28;20050;-88
2021/12/02 03:53:51;;;;;;;7.07;2.42;;;-5.30;99.90;;;;;;4976921;28;20050;-88
2021/12/02 03:56:23;;;;;;;4.35;2.80;;;-5.50;99.90;;;;;;4961155;28;20054;-89
2021/12/02 03:58:52;;;;;;;4.30;3.25;;;-5.70;99.90;;;;;;4966000;28;20057;-88
2021/12/02 04:01:23;;;;;;;8.27;3.13;;;-3.60;99.90;;;;;;4970071;28;20161;-87
2021/12/02 04:03:52;;;;;;;4.47;3.03;;;-5.50;99.90;;;;;;4965149;28;20061;-88
2021/12/02 04:06:21;;;;;;;6.15;3.45;;;-5.70;99.90;;;;;;4964575;28;20054;-88
2021/12/02 04:08:52;;;;;;;5.72;3.42;;;-5.70;99.90;;;;;;4971844;28;20528;-87
2021/12/02 04:11:39;;;;;;;4.00;3.58;;;-5.80;99.90;;;;;;4975485;28;20464;-86
2021/12/02 04:14:14;;;;;;;9.10;3.15;;;-4.10;99.90;;;;;;4969739;28;20326;-85
2021/12/02 04:16:53;;;;;;;5.95;3.00;;;-5.70;99.90;;;;;;4982012;28;20141;-85
2021/12/02 04:19:22;;;;;;;3.28;2.40;;;-6.10;99.90;;;;;;4977467;28;20050;-85
2021/12/02 04:21:51;;;;;;;5.10;2.42;;;-5.30;99.90;;;;;;4960704;28;20042;-83
2021/12/02 04:24:19;;;;;;;4.53;2.95;;;-5.90;99.90;;;;;;4985729;28;20113;-83
2021/12/02 04:26:48;;;;;;;6.70;3.13;;;-5.70;99.90;;;;;;4978934;28;20051;-82
2021/12/02 04:29:17;;;;;;;4.43;3.17;;;-6.10;99.90;;;;;;4967251;28;20073;-83
2021/12/02 04:31:47;;;;;;;8.10;2.90;;;-6.00;99.90;;;;;;4968760;28;20538;-83
2021/12/02 04:34:17;;;;;;;8.75;4.80;;;-6.50;99.90;;;;;;4969626;28;20405;-89
2021/12/02 04:36:45;;;;;;;5.18;3.05;;;-3.80;99.90;;;;;;4975538;28;20498;-89
2021/12/02 04:39:14;;;;;;;4.95;2.85;;;-5.90;99.90;;;;;;4952032;28;20046;-88
2021/12/02 04:41:42;;;;;;;5.88;3.35;;;-4.60;99.90;;;;;;4982703;28;20429;-89
2021/12/02 04:44:18;;;;;;;5.90;2.80;;;-5.00;99.90;;;;;;4990468;28;20078;-88
2021/12/02 04:46:52;;;;;;;5.35;2.65;;;-7.50;99.90;;;;;;4976387;28;20046;-88
2021/12/02 04:49:24;;;;;;;5.68;2.90;;;-5.70;99.90;;;;;;4991155;28;20137;-87
2021/12/02 04:51:52;;;;;;;4.13;2.38;;;-7.00;99.90;;;;;;4990505;28;20070;-87
2021/12/02 04:54:22;;;;;;;10.00;4.97;;;-7.10;99.90;;;;;;4966852;28;20074;-91
2021/12/02 04:56:52;;;;;;;4.53;2.80;;;-5.50;99.90;;;;;;4974327;28;20082;-90
2021/12/02 04:59:24;;;;;;;5.32;2.83;;;-6.40;99.90;;;;;;4974856;28;20097;-89
2021/12/02 05:01:51;;;;;;;8.27;2.70;;;-6.40;99.90;;;;;;4977311;28;20058;-83
2021/12/02 05:04:19;;;;;;;4.20;2.85;;;-6.80;99.90;;;;;;4977909;28;20053;-82
2021/12/02 05:06:47;;;;;;;6.00;3.38;;;-7.10;99.90;;;;;;4960586;28;20082;-80
2021/12/02 05:09:16;;;;;;;4.90;2.80;;;-6.50;99.90;;;;;;4972400;28;20466;-85
2021/12/02 05:11:44;;;;;;;5.65;3.03;;;-6.60;99.90;;;;;;4979200;28;20145;-86
2021/12/02 05:14:12;;;;;;;7.53;3.63;;;-7.30;99.90;;;;;;4974036;28;20106;-87
2021/12/02 05:16:41;;;;;;;4.00;2.80;;;-7.60;99.90;;;;;;4970897;28;20510;-84
2021/12/02 05:19:09;;;;;;;6.60;3.53;;;-7.10;99.90;;;;;;4970615;28;20513;-82
2021/12/02 05:21:37;;;;;;;5.70;3.60;;;-8.80;99.90;;;;;;4990033;28;20514;-84
2021/12/02 05:24:05;;;;;;;14.63;7.43;;;-7.50;99.90;;;;;;4979321;28;20042;-84
2021/12/02 05:26:33;;;;;;;8.23;4.78;;;-6.80;99.90;;;;;;4986388;28;20046;-84
2021/12/02 05:29:01;;;;;;;5.90;3.80;;;-7.10;99.90;;;;;;4975816;28;20058;-87
2021/12/02 05:31:30;;;;;;;9.50;5.38;;;-7.50;99.90;;;;;;4967177;28;20054;-85
2021/12/02 05:33:59;;;;;;;10.60;4.03;;;-7.60;99.90;;;;;;4969185;28;20043;-84
2021/12/02 05:36:27;;;;;;;8.25;4.43;;;-7.60;99.90;;;;;;4974289;28;20066;-84
2021/12/02 05:38:56;;;;;;;9.65;4.78;;;-6.80;99.90;;;;;;4978611;28;20038;-84
2021/12/02 05:41:24;;;;;;;8.23;4.38;;;-7.70;99.90;;;;;;4978051;28;20129;-86
2021/12/02 05:43:52;;;;;;;15.07;7.25;;;-6.80;99.90;;;;;;4977479;28;20142;-83
2021/12/02 05:46:19;;;;;;;9.90;4.30;;;-5.90;99.90;;;;;;4972325;28;20047;-84
2021/12/02 05:48:47;;;;;;;9.82;4.28;;;-5.60;99.90;;;;;;4983265;28;20093;-85
2021/12/02 05:51:16;;;;;;;7.20;4.88;;;-7.30;99.90;;;;;;4989525;28;20105;-84
2021/12/02 05:53:44;;;;;;;9.25;3.88;;;-7.40;99.90;;;;;;4977222;28;20567;-86
2021/12/02 05:56:15;;;;;;;10.10;4.60;;;-7.40;99.90;;;;;;4993793;28;20047;-85
2021/12/02 05:58:48;;;;;;;11.35;3.75;;;-6.70;99.90;;;;;;4960562;28;20067;-84
2021/12/02 06:01:24;;;;;;;8.18;4.43;;;-4.80;99.90;;;;;;4975461;28;20066;-86
2021/12/02 06:04:02;;;;;;;8.35;4.75;;;-7.20;99.90;;;;;;4972971;28;20047;-85
2021/12/02 06:06:53;;;;;;;10.35;4.95;;;-7.90;99.90;;;;;;4987869;28;20114;-86
2021/12/02 06:09:23;;;;;;;8.82;4.65;;;-5.70;99.90;;;;;;4972047;28;20046;-84
2021/12/02 06:11:57;;;;;;;11.88;4.63;;;-7.70;99.90;;;;;;4974708;28;20141;-84
2021/12/02 06:14:25;;;;;;;12.68;4.45;;;-8.30;99.90;;;;;;4988061;28;20042;-81
2021/12/02 06:16:53;;;;;;;7.43;3.78;;;-7.00;99.90;;;;;;4990835;28;20406;-88
2021/12/02 06:19:21;;;;;;;25.10;7.05;;;-7.00;99.90;;;;;;4991290;28;20046;-90
2021/12/02 06:21:51;;;;;;;9.60;4.35;;;-7.50;99.90;;;;;;4974948;28;20126;-86
2021/12/02 06:24:20;;;;;;;9.57;3.53;;;-7.60;99.90;;;;;;4960876;28;20117;-85
2021/12/02 06:26:48;;;;;;;11.32;4.43;;;-7.90;99.90;;;;;;4976654;28;20498;-85
2021/12/02 06:29:15;;;;;;;8.32;3.92;;;-7.20;99.90;;;;;;4974350;28;20499;-85
2021/12/02 06:31:43;;;;;;;12.88;4.68;;;-7.40;99.90;;;;;;4992764;28;20524;-85
2021/12/02 06:34:10;;;;;;;10.00;3.40;;;-7.20;99.90;;;;;;4996038;28;20062;-85
2021/12/02 06:36:38;;;;;;;6.05;3.10;;;-6.60;99.90;;;;;;4989199;28;20077;-83
2021/12/02 06:39:08;;;;;;;8.93;3.05;;;-6.80;99.90;;;;;;4959795;28;20098;-83
2021/12/02 06:41:39;;;;;;;5.82;4.25;;;-7.70;99.90;;;;;;4992246;28;20117;-82
2021/12/02 06:44:10;;;;;;;6.10;3.67;;;-7.90;99.90;;;;;;4989877;28;20566;-84
2021/12/02 06:46:38;;;;;;;6.30;2.95;;;-7.70;99.90;;;;;;4976967;28;20506;-84
2021/12/02 06:49:07;;;;;;;9.40;3.65;;;-7.60;99.90;;;;;;4978413;28;20066;-83
2021/12/02 06:51:34;;;;;;;8.20;4.82;;;-5.60;99.90;;;;;;4985098;28;20574;-84
2021/12/02 06:54:04;;;;;;;7.22;3.67;;;-7.50;99.90;;;;;;4971443;28;20051;-84
2021/12/02 06:56:37;;;;;;;12.38;4.13;;;-7.00;99.90;;;;;;4972534;28;20055;-83
2021/12/02 06:59:05;;;;;;;5.60;3.75;;;-7.00;99.90;;;;;;4971447;28;20050;-83
2021/12/02 07:01:34;;;;;;;10.10;4.30;;;-7.60;99.90;;;;;;4967924;28;20051;-81
2021/12/02 07:04:01;;;;;;;9.75;4.80;;;-7.10;99.90;;;;;;4984916;28;20132;-83
2021/12/02 07:06:43;;;;;;;8.02;4.13;;;-7.20;99.90;;;;;;4969852;28;20441;-87
2021/12/02 07:09:55;;;;;;;12.45;5.45;;;-7.20;99.90;;;;;;4970114;28;20059;-80
2021/12/02 07:12:43;;;;;;;10.23;4.53;;;-7.00;99.90;;;;;;4982875;28;20132;-81
2021/12/02 07:15:16;;;;;;;8.48;4.90;;;-7.00;99.90;;;;;;4953538;28;20534;-81
2021/12/02 07:17:49;;;;;;;8.27;3.90;;;-7.30;99.90;;;;;;4955893;28;21341;-78
2021/12/02 07:20:17;;;;;;;13.63;5.32;;;-7.90;99.90;;;;;;4986117;28;20141;-78
2021/12/02 07:22:48;;;;;;;7.65;5.18;;;-6.30;99.90;;;;;;4987415;28;20166;-79
2021/12/02 07:25:16;;;;;;;7.20;4.57;;;-6.50;99.90;;;;;;4984209;28;20042;-81
2021/12/02 07:27:45;;;;;;;8.75;5.43;;;-6.90;99.90;;;;;;4952763;28;20841;-78
2021/12/02 07:30:13;;;;;;;8.82;5.90;;;-6.90;99.90;;;;;;4990462;28;20425;-81
2021/12/02 07:32:42;;;;;;;11.63;5.88;;;-6.90;99.90;;;;;;4992599;28;20053;-80
2021/12/02 07:35:13;;;;;;;10.30;5.97;;;-6.20;99.90;;;;;;4983479;28;20077;-82
2021/12/02 07:37:47;;;;;;;11.32;6.13;;;-7.10;99.90;;;;;;4981533;28;20054;-81
2021/12/02 07:40:18;;;;;;;11.63;6.35;;;-6.90;99.90;;;;;;4992799;28;20137;-87
2021/12/02 07:42:49;;;;;;;16.50;8.45;;;-6.70;99.90;;;;;;4938268;29;20511;-87
2021/12/02 07:45:18;;;;;;;9.82;5.97;;;-6.70;99.90;;;;;;4954480;28;20047;-86
2021/12/02 07:47:45;;;;;;;14.00;6.40;;;-6.30;99.90;;;;;;4988706;28;20140;-87
2021/12/02 07:50:15;;;;;;;11.55;6.40;;;-5.50;99.90;;;;;;4990342;28;20066;-88
2021/12/02 07:52:49;;;;;;;13.32;6.07;;;-7.00;99.90;;;;;;4978587;28;20055;-85
2021/12/02 07:55:22;;;;;;;12.15;7.10;;;-6.10;99.90;;;;;;4974692;28;20043;-87
2021/12/02 07:57:51;;;;;;;16.90;8.75;;;-6.10;99.90;;;;;;4972981;28;20149;-83
2021/12/02 08:00:21;;;;;;;16.85;8.38;;;-6.60;99.90;;;;;;4992104;28;20043;-82
2021/12/02 08:02:52;;;;;;;18.85;8.23;;;-6.40;99.90;;;;;;4992015;28;20050;-82
2021/12/02 08:05:23;;;;;;;15.82;7.70;;;-7.20;99.90;;;;;;4976237;28;20799;-82
2021/12/02 08:07:52;;;;;;;15.70;9.23;;;-6.10;99.90;;;;;;4969719;28;20042;-81
2021/12/02 08:10:23;;;;;;;21.13;8.50;;;-6.60;99.90;;;;;;4972089;28;20043;-81
2021/12/02 08:12:52;;;;;;;16.25;8.55;;;-6.10;99.90;;;;;;5002798;28;20057;-82
2021/12/02 08:15:22;;;;;;;18.73;9.52;;;-6.40;99.90;;;;;;4991459;28;20137;-85
2021/12/02 08:17:51;;;;;;;16.90;8.70;;;-6.20;99.90;;;;;;4991795;28;20141;-81
2021/12/02 08:20:21;;;;;;;14.57;8.52;;;-6.50;99.90;;;;;;4982523;28;20038;-86
2021/12/02 08:22:49;;;;;;;17.02;9.48;;;-6.50;99.90;;;;;;4979095;28;20430;-83
2021/12/02 08:25:17;;;;;;;17.02;10.10;;;-5.70;99.90;;;;;;4972913;28;20458;-85
2021/12/02 08:27:45;;;;;;;19.67;9.57;;;-6.70;99.90;;;;;;4988438;28;20078;-84
2021/12/02 08:30:25;;;;;;;22.90;10.60;;;-6.00;99.90;;;;;;4975380;28;20100;-85
2021/12/02 08:32:53;;;;;;;22.55;11.05;;;-6.60;99.90;;;;;;4991467;28;20058;-84
2021/12/02 08:35:22;;;;;;;19.00;10.40;;;-6.60;99.90;;;;;;4989766;28;20418;-85
2021/12/02 08:37:55;;;;;;;22.85;10.32;;;-6.80;99.90;;;;;;4988212;28;20046;-79
2021/12/02 08:40:30;;;;;;;20.80;10.20;;;-6.10;99.90;;;;;;4972633;28;20054;-85
2021/12/02 08:42:59;;;;;;;25.02;10.65;;;-6.50;99.90;;;;;;4977391;28;20062;-84
2021/12/02 08:45:30;;;;;;;18.27;10.20;;;-6.90;99.90;;;;;;4941780;29;20047;-85
2021/12/02 08:47:59;;;;;;;23.17;11.05;;;-6.20;99.90;;;;;;4948238;29;20055;-84
2021/12/02 08:50:28;;;;;;;23.77;11.48;;;-6.30;99.90;;;;;;4952186;29;20063;-85
2021/12/02 08:52:56;;;;;;;19.20;9.73;;;-5.20;99.90;;;;;;4952062;29;20043;-83
2021/12/02 08:55:25;;;;;;;20.45;10.88;;;-6.70;99.90;;;;;;4953259;29;20074;-85
2021/12/02 08:57:54;;;;;;;22.83;10.93;;;-6.50;99.90;;;;;;4951301;29;20051;-83
2021/12/02 09:00:27;;;;;;;20.10;10.90;;;-6.30;99.90;;;;;;4935265;28;20055;-85
2021/12/02 09:02:56;;;;;;;;;;;-7.00;99.90;;;;;;4951878;29;20051;-82
2021/12/02 09:05:24;;;;;;;22.55;11.50;;;-6.20;99.90;;;;;;4952943;29;19962;-83
2021/12/02 09:07:52;;;;;;;23.17;9.95;;;-6.40;99.90;;;;;;4967321;28;20154;-83
2021/12/02 09:10:21;;;;;;;18.83;9.07;;;-5.80;99.90;;;;;;4956358;28;20567;-82
2021/12/02 09:12:50;;;;;;;23.77;10.70;;;-7.10;99.90;;;;;;4956119;28;20154;-82
2021/12/02 09:15:18;;;;;;;19.80;9.88;;;-6.30;99.90;;;;;;4955245;28;20126;-83
2021/12/02 09:17:49;;;;;;;26.08;10.00;;;-6.10;99.90;;;;;;4955020;28;20055;-85
2021/12/02 09:20:21;;;;;;;20.85;10.57;;;-6.30;99.90;;;;;;4939168;29;20479;-85
2021/12/02 09:22:49;;;;;;;21.15;10.40;;;-6.60;99.90;;;;;;4969848;28;20059;-84
2021/12/02 09:25:18;;;;;;;22.33;11.13;;;-5.50;99.90;;;;;;4972011;28;20047;-82
2021/12/02 09:27:46;;;;;;;19.85;10.18;;;-6.60;99.90;;;;;;4967068;28;20046;-84
2021/12/02 09:30:16;;;;;;;37.80;11.15;;;-6.10;99.90;;;;;;4970974;28;20089;-85
2021/12/02 09:32:51;;;;;;;23.75;9.77;;;-5.90;99.90;;;;;;4974002;28;20054;-84
2021/12/02 09:35:21;;;;;;;19.65;11.05;;;-6.30;99.90;;;;;;4957799;28;20490;-84
2021/12/02 09:37:49;;;;;;;23.98;11.52;;;-3.20;99.90;;;;;;4982229;28;20180;-83
2021/12/02 09:40:17;;;;;;;26.00;13.90;;;-5.80;99.90;;;;;;4971877;28;20511;-84
2021/12/02 09:42:46;;;;;;;24.52;12.57;;;-5.90;99.90;;;;;;4962503;28;20515;-82
2021/12/02 09:45:16;;;;;;;21.60;11.60;;;-5.70;99.90;;;;;;4954948;29;20415;-81
2021/12/02 09:47:49;;;;;;;22.67;11.75;;;-5.90;99.90;;;;;;4953480;28;20047;-84
2021/12/02 09:50:23;;;;;;;31.35;12.20;;;-5.60;99.90;;;;;;4969498;28;20051;-80
2021/12/02 09:52:51;;;;;;;27.63;13.05;;;-5.70;99.90;;;;;;4954465;28;20059;-80
2021/12/02 09:55:24;;;;;;;25.27;12.70;;;-5.80;99.90;;;;;;4955277;28;20091;-82
2021/12/02 09:57:55;;;;;;;32.80;14.13;;;-5.90;99.90;;;;;;4973117;28;20495;-80
2021/12/02 10:00:36;;;;;;;26.73;12.82;;;-5.50;99.90;;;;;;4972403;28;20059;-82
2021/12/02 10:03:07;;;;;;;28.58;12.95;;;-5.30;99.90;;;;;;4955174;28;20084;-79
2021/12/02 10:05:43;;;;;;;24.90;12.75;;;-5.30;99.90;;;;;;4970593;28;20051;-81
2021/12/02 10:08:21;;;;;;;27.95;12.98;;;-5.30;99.90;;;;;;4955102;29;20055;-81
2021/12/02 10:10:56;;;;;;;32.90;13.05;;;-5.70;99.90;;;;;;4954616;29;20055;-80
2021/12/02 10:13:29;;;;;;;45.25;14.13;;;-4.10;99.90;;;;;;4954987;29;20052;-82
2021/12/02 10:16:15;;;;;;;;;;;-5.60;99.90;;;;;;4954345;29;20455;-81
2021/12/02 10:18:59;;;;;;;28.88;13.13;;;-6.20;99.90;;;;;;4955121;28;20034;-82
2021/12/02 10:21:40;;;;;;;32.05;13.18;;;-5.30;99.90;;;;;;4936679;29;20579;-81
2021/12/02 10:24:10;;;;;;;32.03;16.77;;;-5.00;99.90;;;;;;4935990;29;20547;-82
2021/12/02 10:26:43;;;;;;;45.38;18.92;;;-3.20;99.90;;;;;;4954879;28;20062;-84
2021/12/02 10:29:15;;;;;;;57.88;26.52;;;-5.20;99.90;;;;;;4969998;28;20423;-83
2021/12/02 10:31:47;;;;;;;60.88;26.58;;;-4.50;99.90;;;;;;4970564;28;20055;-81
2021/12/02 10:34:18;;;;;;;63.27;29.10;;;-3.90;99.90;;;;;;4974523;28;20535;-80
2021/12/02 10:36:48;;;;;;;54.20;23.95;;;-4.10;99.90;;;;;;4974011;28;20287;-81
2021/12/02 10:39:20;;;;;;;60.70;28.10;;;-4.60;99.90;;;;;;4935736;29;20420;-80
2021/12/02 10:41:59;;;;;;;73.63;31.92;;;-3.70;99.90;;;;;;4935636;29;20071;-80
2021/12/02 10:44:31;;;;;;;71.03;31.95;;;-3.00;99.90;;;;;;4935146;29;20052;-79
2021/12/02 10:47:03;;;;;;;71.75;31.65;;;-3.30;99.90;;;;;;4948699;29;20065;-81
2021/12/02 10:49:34;;;;;;;66.13;31.60;;;-3.50;99.90;;;;;;4952921;29;20491;-80
2021/12/02 10:52:06;;;;;;;54.13;25.40;;;-4.10;99.90;;;;;;4968847;28;20461;-81
2021/12/02 10:54:37;;;;;;;30.25;15.18;;;-3.50;99.90;;;;;;4954201;29;20084;-80
2021/12/02 10:57:11;;;;;;;28.42;13.65;;;-4.00;99.90;;;;;;4953464;29;20051;-81
2021/12/02 10:59:44;;;;;;;26.65;13.48;;;-4.10;99.90;;;;;;4954272;29;20078;-80
2021/12/02 11:02:25;;;;;;;25.80;12.20;;;-4.20;99.90;;;;;;4954038;29;20743;-80
2021/12/02 11:04:57;;;;;;;22.65;10.45;;;-4.20;99.90;;;;;;4953264;29;20400;-80
2021/12/02 11:07:30;;;;;;;23.80;11.75;;;-3.90;99.90;;;;;;4954048;28;20430;-80
2021/12/02 11:10:01;;;;;;;19.80;9.82;;;-4.90;99.90;;;;;;4953029;29;20051;-78
2021/12/02 11:12:31;;;;;;;28.50;11.50;;;-3.70;99.90;;;;;;4952358;29;20094;-79
2021/12/02 11:15:13;;;;;;;25.63;11.85;;;-4.80;99.90;;;;;;4953136;29;20062;-79
2021/12/02 11:17:48;;;;;;;32.17;10.93;;;-4.10;99.90;;;;;;4968827;28;20051;-79
2021/12/02 11:20:22;;;;;;;25.63;11.65;;;-3.70;99.90;;;;;;4954090;29;20066;-78
2021/12/02 11:22:59;;;;;;;24.52;10.20;;;-4.50;99.90;;;;;;4950827;28;20062;-78
2021/12/02 11:25:28;;;;;;;20.88;9.43;;;-5.20;99.90;;;;;;4953512;29;20051;-80
2021/12/02 11:27:56;;;;;;;19.85;10.07;;;-5.10;99.90;;;;;;4952312;29;20578;-79
2021/12/02 11:30:25;;;;;;;21.17;10.75;;;-3.30;99.90;;;;;;4959461;28;20047;-79
2021/12/02 11:32:59;;;;;;;21.52;9.93;;;-4.20;99.90;;;;;;4935391;29;20431;-80
2021/12/02 11:35:32;;;;;;;19.70;9.07;;;-4.00;99.90;;;;;;4968151;28;20050;-79
2021/12/02 11:38:09;;;;;;;25.95;10.30;;;-5.00;99.90;;;;;;4953978;29;20098;-80
2021/12/02 11:40:49;;;;;;;21.27;10.68;;;-4.20;99.90;;;;;;4953824;28;20138;-81
2021/12/02 11:43:26;;;;;;;24.02;10.07;;;-4.00;99.90;;;;;;4953515;28;20085;-80
2021/12/02 11:46:08;;;;;;;28.15;11.77;;;-5.40;99.90;;;;;;4968077;28;20051;-79
2021/12/02 11:48:46;;;;;;;26.70;10.77;;;-3.00;99.90;;;;;;4953161;29;20134;-80
2021/12/02 11:51:17;;;;;;;25.02;9.73;;;-4.80;99.90;;;;;;4953629;29;20047;-80
2021/12/02 11:54:03;;;;;;;;;;;-3.90;99.90;;;;;;4953887;29;20051;-81
2021/12/02 11:56:52;;;;;;;19.23;9.07;;;-5.40;99.90;;;;;;4952825;29;20017;-81
2021/12/02 11:59:31;;;;;;;17.55;9.00;;;-3.30;99.90;;;;;;4953022;29;20129;-80
2021/12/02 12:02:53;;;;;;;16.88;8.82;;;-5.70;99.90;;;;;;4935665;29;20483;-85
2021/12/02 12:05:31;;;;;;;23.45;8.73;;;-4.20;99.90;;;;;;4936577;29;20102;-86
2021/12/02 12:08:32;;;;;;;;;;;;;;;;;;;;;
2021/12/02 12:11:23;;;;;;;19.88;7.95;;;-2.60;99.90;;;;;;4953129;29;20137;-85
2021/12/02 12:13:59;;;;;;;18.52;8.30;;;-5.30;99.90;;;;;;4953509;28;20151;-86
2021/12/02 12:16:35;;;;;;;14.38;6.88;;;-5.40;99.90;;;;;;4947928;28;20095;-83
2021/12/02 12:19:19;;;;;;;12.48;6.15;;;-3.20;99.90;;;;;;4939267;29;20053;-85
2021/12/02 12:21:55;;;;;;;14.05;7.38;;;-5.80;99.90;;;;;;4967349;28;20050;-84
2021/12/02 12:24:42;;;;;;;14.13;6.72;;;-5.40;99.90;;;;;;4957233;29;20098;-85
2021/12/02 12:27:19;;;;;;;11.85;6.07;;;-5.70;99.90;;;;;;4950936;29;20047;-83
2021/12/02 12:29:49;;;;;;;10.57;5.90;;;-5.50;99.90;;;;;;4966083;28;20043;-82
2021/12/02 12:32:38;;;;;;;11.80;6.50;;;-5.90;99.90;;;;;;4951368;28;20414;-78
2021/12/02 12:35:38;;;;;;;14.27;7.22;;;-5.80;99.90;;;;;;4968121;28;20069;-86
2021/12/02 12:38:32;;;;;;;14.52;6.55;;;-5.70;99.90;;;;;;4966657;28;20058;-86
2021/12/02 12:41:04;;;;;;;15.88;7.07;;;-6.20;99.90;;;;;;4946781;28;20054;-82
2021/12/02 12:43:38;;;;;;;10.52;5.78;;;-6.00;99.90;;;;;;4967350;28;20137;-85
2021/12/02 12:46:16;;;;;;;11.77;6.10;;;-6.00;99.90;;;;;;4942326;28;20150;-87
2021/12/02 12:48:47;;;;;;;13.80;6.97;;;-6.00;99.90;;;;;;4950929;29;20146;-86
2021/12/02 12:51:35;;;;;;;17.75;7.00;;;-7.20;99.90;;;;;;4951225;29;20074;-89
2021/12/02 12:54:27;;;;;;;10.88;6.65;;;-4.50;99.90;;;;;;4969412;28;20132;-89
2021/12/02 12:57:10;;;;;;;14.98;6.13;;;-7.20;99.90;;;;;;4951483;28;20371;-88
2021/12/02 13:00:01;;;;;;;18.55;8.07;;;-6.40;99.90;;;;;;4989845;28;20074;-89
2021/12/02 13:02:36;;;;;;;17.17;8.05;;;-4.00;99.90;;;;;;4974029;28;20042;-92
2021/12/02 13:05:11;;;;;;;22.17;9.10;;;-6.60;99.90;;;;;;4946736;29;20639;-87
2021/12/02 13:07:41;;;;;;;18.55;8.65;;;-6.90;99.90;;;;;;4960019;29;20055;-92
2021/12/02 13:10:28;;;;;;;22.00;8.88;;;-6.30;99.90;;;;;;4974321;28;20054;-86
2021/12/02 13:12:58;;;;;;;18.77;8.43;;;-6.70;99.90;;;;;;4970986;28;20053;-85